createdAt,value
2022-12-20T00:01:32.061Z,70.45
2022-12-20T00:06:25.945Z,72.22
2022-12-20T00:11:19.105Z,68.55
2022-12-20T00:16:14.225Z,62.08
2022-12-20T00:21:08.521Z,72.82
2022-12-20T00:26:06.624Z,72.65
2022-12-20T00:30:59.500Z,68.32
2022-12-20T00:35:52.906Z,68.05
2022-12-20T00:40:46.013Z,69.20
2022-12-20T00:45:39.442Z,68.68
2022-12-20T00:50:33.045Z,66.82
2022-12-20T00:55:26.129Z,67.55
2022-12-20T01:00:21.865Z,69.47
2022-12-20T01:05:15.428Z,77.18
2022-12-20T01:10:10.220Z,72.68
2022-12-20T01:15:03.594Z,67.70
2022-12-20T01:19:57.557Z,74.25
2022-12-20T01:24:51.075Z,69.80
2022-12-20T01:29:45.025Z,67.55
2022-12-20T01:34:37.844Z,67.53
2022-12-20T01:39:31.481Z,69.00
2022-12-20T01:44:24.108Z,66.40
2022-12-20T01:49:37.558Z,69.00
2022-12-20T01:54:37.540Z,63.10
2022-12-20T01:59:32.552Z,63.72
2022-12-20T02:04:25.832Z,63.00
2022-12-20T02:09:18.904Z,72.65
2022-12-20T02:14:17.774Z,59.78
2022-12-20T02:24:24.136Z,60.72
2022-12-20T02:29:26.021Z,67.53
2022-12-20T02:34:25.249Z,56.72
2022-12-20T02:39:18.298Z,69.03
2022-12-20T02:44:33.744Z,62.90
2022-12-20T02:49:30.126Z,63.47
2022-12-20T02:54:23.382Z,61.17
2022-12-20T02:59:19.290Z,70.40
2022-12-20T03:04:13.652Z,65.97
2022-12-20T03:09:07.396Z,60.70
2022-12-20T03:14:04.625Z,65.65
2022-12-20T03:18:58.717Z,74.80
2022-12-20T03:23:51.777Z,67.63
2022-12-20T03:28:44.701Z,62.72
2022-12-20T03:33:42.095Z,75.72
2022-12-20T03:38:35.459Z,64.75
2022-12-20T03:43:32.081Z,67.57
2022-12-20T03:48:24.507Z,70.85
2022-12-20T03:53:18.605Z,62.05
2022-12-20T03:58:12.088Z,70.47
2022-12-20T04:03:06.567Z,67.03
2022-12-20T04:08:00.335Z,70.68
2022-12-20T04:12:54.572Z,69.00
2022-12-20T04:17:48.054Z,67.78
2022-12-20T04:22:42.226Z,84.32
2022-12-20T04:27:36.193Z,75.53
2022-12-20T04:32:32.973Z,79.32
2022-12-20T04:37:27.653Z,77.13
2022-12-20T04:42:22.888Z,65.10
2022-12-20T04:47:16.938Z,68.75
2022-12-20T04:52:28.619Z,71.25
2022-12-20T04:57:21.674Z,78.78
2022-12-20T05:02:15.213Z,68.28
2022-12-20T05:07:34.365Z,74.07
2022-12-20T05:12:28.471Z,71.28
2022-12-20T05:17:25.132Z,77.25
2022-12-20T05:22:37.562Z,73.45
2022-12-20T05:27:35.817Z,70.40
2022-12-20T05:32:30.071Z,72.30
2022-12-20T05:37:22.776Z,76.03
2022-12-20T05:42:16.477Z,78.43
2022-12-20T05:47:10.831Z,73.70
2022-12-20T05:52:06.045Z,69.45
2022-12-20T05:57:01.524Z,82.57
2022-12-20T06:02:01.990Z,70.68
2022-12-20T06:06:56.298Z,86.88
2022-12-20T06:11:50.445Z,76.00
2022-12-20T06:16:43.169Z,72.75
2022-12-20T06:21:38.979Z,68.32
2022-12-20T06:26:37.498Z,67.78
2022-12-20T06:31:33.575Z,69.57
2022-12-20T06:36:26.202Z,75.68
2022-12-20T06:41:20.623Z,74.05
2022-12-20T06:46:13.514Z,69.25
2022-12-20T06:51:06.319Z,70.05
2022-12-20T06:55:59.945Z,66.60
2022-12-20T07:00:52.825Z,73.35
2022-12-20T07:05:47.471Z,74.18
2022-12-20T07:10:40.681Z,76.10
2022-12-20T07:15:35.431Z,63.22
2022-12-20T07:20:27.607Z,69.55
2022-12-20T07:25:21.226Z,77.90
2022-12-20T07:30:15.503Z,71.30
2022-12-20T07:35:10.861Z,69.30
2022-12-20T07:40:04.593Z,72.25
2022-12-20T07:44:57.864Z,59.90
2022-12-20T07:49:52.033Z,67.20
2022-12-20T07:54:49.834Z,71.78
2022-12-20T07:59:48.208Z,66.40
2022-12-20T08:04:42.149Z,56.85
2022-12-20T08:09:38.291Z,66.00
2022-12-20T08:14:31.282Z,73.20
2022-12-20T08:19:31.960Z,79.10
2022-12-20T08:24:25.949Z,88.38
2022-12-20T08:29:19.781Z,88.70
2022-12-20T08:34:12.970Z,91.05
2022-12-20T08:39:07.004Z,99.28
2022-12-20T08:44:00.557Z,95.93
2022-12-20T08:48:53.778Z,96.95
2022-12-20T08:53:47.527Z,90.13
2022-12-20T08:58:42.008Z,88.28
2022-12-20T09:03:35.140Z,88.88
2022-12-20T09:08:28.474Z,91.85
2022-12-20T09:13:22.943Z,88.35
2022-12-20T09:18:16.559Z,75.88
2022-12-20T09:23:10.426Z,71.55
2022-12-20T09:28:06.065Z,77.78
2022-12-20T09:33:10.417Z,71.35
2022-12-20T09:38:04.890Z,77.25
2022-12-20T09:42:58.510Z,68.22
2022-12-20T09:47:52.616Z,53.28
2022-12-20T09:53:23.987Z,55.58
2022-12-20T09:58:27.155Z,58.58
2022-12-20T10:03:32.407Z,54.03
2022-12-20T10:08:46.951Z,51.67
2022-12-20T10:13:48.924Z,56.17
2022-12-20T10:19:20.050Z,50.55
2022-12-20T10:24:19.956Z,44.70
2022-12-20T10:29:12.289Z,53.85
2022-12-20T10:34:06.809Z,54.50
2022-12-20T10:39:02.107Z,58.30
2022-12-20T10:44:01.678Z,55.03
2022-12-20T10:48:55.544Z,57.00
2022-12-20T10:53:54.931Z,65.63
2022-12-20T10:59:18.291Z,55.47
2022-12-20T11:04:31.524Z,59.67
2022-12-20T11:09:29.608Z,51.20
2022-12-20T11:14:23.599Z,56.70
2022-12-20T11:19:22.721Z,50.00
2022-12-20T11:29:56.947Z,49.50
2022-12-20T11:35:17.202Z,52.80
2022-12-20T11:40:12.615Z,53.75
2022-12-20T11:45:29.810Z,51.90
2022-12-20T11:50:44.590Z,57.63
2022-12-20T11:55:42.537Z,58.42
2022-12-20T12:00:36.640Z,56.42
2022-12-20T12:05:30.476Z,52.78
2022-12-20T12:10:37.591Z,61.08
2022-12-20T12:15:39.379Z,67.70
2022-12-20T12:20:56.763Z,67.97
2022-12-20T12:25:51.043Z,64.57
2022-12-20T12:31:11.193Z,69.65
2022-12-20T12:36:34.785Z,68.95
2022-12-20T12:41:49.896Z,64.07
2022-12-20T12:46:44.145Z,65.65
2022-12-20T12:51:40.332Z,66.72
2022-12-20T12:56:45.603Z,68.68
2022-12-20T13:01:44.536Z,67.60
2022-12-20T13:06:38.095Z,69.45
2022-12-20T13:11:34.589Z,64.53
2022-12-20T13:16:48.740Z,66.88
2022-12-20T13:22:17.520Z,64.15
2022-12-20T13:27:24.408Z,63.75
2022-12-20T13:32:47.999Z,71.95
2022-12-20T13:38:00.975Z,68.15
2022-12-20T13:42:56.021Z,66.40
2022-12-20T13:47:51.877Z,71.07
2022-12-20T13:52:46.601Z,63.63
2022-12-20T13:57:47.153Z,63.05
2022-12-20T14:02:43.339Z,61.47
2022-12-20T14:07:36.399Z,63.45
2022-12-20T14:12:36.785Z,61.35
2022-12-20T14:17:32.502Z,59.40
2022-12-20T14:22:25.890Z,60.00
2022-12-20T14:27:19.760Z,63.20
2022-12-20T14:32:19.365Z,59.42
2022-12-20T14:37:27.347Z,57.92
2022-12-20T14:42:21.448Z,56.78
2022-12-20T14:47:26.574Z,59.00
2022-12-20T14:52:35.990Z,60.13
2022-12-20T14:57:33.055Z,61.47
2022-12-20T15:02:43.021Z,57.92
2022-12-20T15:07:36.339Z,52.97
2022-12-20T15:12:29.429Z,55.75
2022-12-20T15:17:22.831Z,53.28
2022-12-20T15:22:16.916Z,59.15
2022-12-20T15:27:14.850Z,56.63
2022-12-20T15:32:54.725Z,55.58
2022-12-20T15:37:49.303Z,57.60
2022-12-20T15:42:44.589Z,53.17
2022-12-20T15:47:39.011Z,53.10
2022-12-20T15:52:32.477Z,54.25
2022-12-20T15:57:25.833Z,55.60
2022-12-20T16:02:22.947Z,52.17
2022-12-20T16:07:16.862Z,55.58
2022-12-20T16:12:35.625Z,54.90
2022-12-20T16:17:28.545Z,51.17
2022-12-20T16:22:23.430Z,50.60
2022-12-20T16:27:17.259Z,54.75
2022-12-20T16:32:19.358Z,59.28
2022-12-20T16:37:12.532Z,58.05
2022-12-20T16:42:17.137Z,54.75
2022-12-20T16:47:10.133Z,58.03
2022-12-20T16:52:04.465Z,58.20
2022-12-20T16:56:57.945Z,55.78
2022-12-20T17:01:54.072Z,54.67
2022-12-20T17:06:46.851Z,55.88
2022-12-20T17:11:40.890Z,59.88
2022-12-20T17:16:35.292Z,57.60
2022-12-20T17:26:46.914Z,59.88
2022-12-20T17:31:42.988Z,52.30
2022-12-20T17:36:38.261Z,59.90
2022-12-20T17:41:35.602Z,54.90
2022-12-20T17:46:29.266Z,61.67
2022-12-20T17:51:27.792Z,61.42
2022-12-20T17:56:23.441Z,103.97
2022-12-20T18:01:36.843Z,56.65
2022-12-20T18:06:31.689Z,63.55
2022-12-20T18:11:27.681Z,53.88
2022-12-20T18:16:22.829Z,53.60
2022-12-20T18:21:17.591Z,56.33
2022-12-20T18:26:14.674Z,56.97
2022-12-20T18:31:08.675Z,56.95
2022-12-20T18:36:10.132Z,68.20
2022-12-20T18:41:06.313Z,58.25
2022-12-20T18:46:10.281Z,58.10
2022-12-20T18:51:11.533Z,56.75
2022-12-20T18:56:07.173Z,61.88
2022-12-20T19:01:08.462Z,57.03
2022-12-20T19:06:01.437Z,62.10
2022-12-20T19:10:53.908Z,60.00
2022-12-20T19:15:48.001Z,62.88
2022-12-20T19:20:41.260Z,58.88
2022-12-20T19:25:34.113Z,57.60
2022-12-20T19:30:28.165Z,62.05
2022-12-20T19:35:53.437Z,59.72
2022-12-20T19:40:33.657Z,58.50
2022-12-20T19:45:27.391Z,54.95
2022-12-20T19:50:20.824Z,56.38
2022-12-20T19:55:14.315Z,58.72
2022-12-20T20:00:10.218Z,60.90
2022-12-20T20:05:14.499Z,59.43
2022-12-20T20:10:10.611Z,56.75
2022-12-20T20:15:04.951Z,58.50
2022-12-20T20:19:58.510Z,56.33
2022-12-20T20:24:52.427Z,59.58
2022-12-20T20:29:46.155Z,61.13
2022-12-20T20:34:39.476Z,60.80
2022-12-20T20:39:33.114Z,61.38
2022-12-20T20:44:25.913Z,68.63
2022-12-20T20:49:19.837Z,62.60
2022-12-20T20:54:13.773Z,64.53
2022-12-20T20:59:10.574Z,64.68
2022-12-20T21:04:09.109Z,63.15
2022-12-20T21:09:03.854Z,53.50
2022-12-20T21:13:57.840Z,60.28
2022-12-20T21:18:57.951Z,54.10
2022-12-20T21:23:51.736Z,54.38
2022-12-20T21:28:44.744Z,58.67
2022-12-20T21:33:39.147Z,62.50
2022-12-20T21:38:38.498Z,64.45
2022-12-20T21:43:34.035Z,59.42
2022-12-20T21:48:30.144Z,62.42
2022-12-20T21:53:25.065Z,61.90
2022-12-20T21:58:19.116Z,66.78
2022-12-20T22:03:11.615Z,67.55
2022-12-20T22:08:05.134Z,61.08
2022-12-20T22:12:57.962Z,64.60
2022-12-20T22:17:51.100Z,63.22
2022-12-20T22:22:45.309Z,61.63
2022-12-20T22:27:38.307Z,58.20
2022-12-20T22:32:32.720Z,55.35
2022-12-20T22:37:26.596Z,66.40
2022-12-20T22:42:19.756Z,60.33
2022-12-20T22:47:13.041Z,63.47
2022-12-20T22:52:07.844Z,59.08
2022-12-20T22:57:01.194Z,61.95
2022-12-20T23:01:55.216Z,60.25
2022-12-20T23:06:48.272Z,57.00
2022-12-20T23:12:00.599Z,56.92
2022-12-20T23:16:53.332Z,57.95
2022-12-20T23:22:07.177Z,58.40
2022-12-20T23:27:00.129Z,57.63
2022-12-20T23:31:53.919Z,57.78
2022-12-20T23:36:46.992Z,55.08
2022-12-20T23:41:40.626Z,55.75
2022-12-20T23:46:33.900Z,59.00
2022-12-20T23:51:26.169Z,57.08
2022-12-20T23:56:22.159Z,55.95
